sensor_id;sensor_type;location;lat;lon;timestamp;temperature;humidity
51855;DHT22;37895;53.240;6.572;2023-04-22T00:00:48;13.60;89.80
51855;DHT22;37895;53.240;6.572;2023-04-22T00:03:14;13.60;90.00
51855;DHT22;37895;53.240;6.572;2023-04-22T00:05:40;13.60;90.10
51855;DHT22;37895;53.240;6.572;2023-04-22T00:08:06;13.50;91.00
51855;DHT22;37895;53.240;6.572;2023-04-22T00:10:33;13.50;91.00
51855;DHT22;37895;53.240;6.572;2023-04-22T00:12:58;13.40;91.70
51855;DHT22;37895;53.240;6.572;2023-04-22T00:15:24;13.30;91.70
51855;DHT22;37895;53.240;6.572;2023-04-22T00:17:51;13.30;91.80
51855;DHT22;37895;53.240;6.572;2023-04-22T00:20:19;13.20;92.30
51855;DHT22;37895;53.240;6.572;2023-04-22T00:22:47;13.20;92.40
51855;DHT22;37895;53.240;6.572;2023-04-22T00:25:13;13.10;92.30
51855;DHT22;37895;53.240;6.572;2023-04-22T00:27:38;13.00;92.80
51855;DHT22;37895;53.240;6.572;2023-04-22T00:30:05;13.00;93.30
51855;DHT22;37895;53.240;6.572;2023-04-22T00:32:31;12.90;93.50
51855;DHT22;37895;53.240;6.572;2023-04-22T00:34:56;12.80;93.60
51855;DHT22;37895;53.240;6.572;2023-04-22T00:37:23;12.70;93.70
51855;DHT22;37895;53.240;6.572;2023-04-22T00:39:49;12.70;93.80
51855;DHT22;37895;53.240;6.572;2023-04-22T00:42:15;12.60;94.30
51855;DHT22;37895;53.240;6.572;2023-04-22T00:44:41;12.50;94.50
51855;DHT22;37895;53.240;6.572;2023-04-22T00:47:08;12.50;94.70
51855;DHT22;37895;53.240;6.572;2023-04-22T00:49:34;12.50;94.90
51855;DHT22;37895;53.240;6.572;2023-04-22T00:52:01;12.50;94.90
51855;DHT22;37895;53.240;6.572;2023-04-22T00:54:27;12.40;94.90
51855;DHT22;37895;53.240;6.572;2023-04-22T00:56:53;12.40;95.50
51855;DHT22;37895;53.240;6.572;2023-04-22T00:59:20;12.30;94.80
51855;DHT22;37895;53.240;6.572;2023-04-22T01:01:46;12.30;95.00
51855;DHT22;37895;53.240;6.572;2023-04-22T01:04:12;12.10;95.30
51855;DHT22;37895;53.240;6.572;2023-04-22T01:06:39;12.10;95.50
51855;DHT22;37895;53.240;6.572;2023-04-22T01:09:06;12.10;95.60
51855;DHT22;37895;53.240;6.572;2023-04-22T01:11:33;12.00;95.60
51855;DHT22;37895;53.240;6.572;2023-04-22T01:14:00;12.00;95.70
51855;DHT22;37895;53.240;6.572;2023-04-22T01:16:26;11.90;95.80
51855;DHT22;37895;53.240;6.572;2023-04-22T01:18:53;11.80;95.90
51855;DHT22;37895;53.240;6.572;2023-04-22T01:21:19;11.80;95.90
51855;DHT22;37895;53.240;6.572;2023-04-22T01:23:45;11.70;96.30
51855;DHT22;37895;53.240;6.572;2023-04-22T01:26:11;11.60;96.20
51855;DHT22;37895;53.240;6.572;2023-04-22T01:28:37;11.60;96.30
51855;DHT22;37895;53.240;6.572;2023-04-22T01:31:03;11.60;96.40
51855;DHT22;37895;53.240;6.572;2023-04-22T01:33:29;11.50;96.40
51855;DHT22;37895;53.240;6.572;2023-04-22T01:35:56;11.50;96.40
51855;DHT22;37895;53.240;6.572;2023-04-22T01:38:22;11.50;96.40
51855;DHT22;37895;53.240;6.572;2023-04-22T01:40:48;11.50;96.70
51855;DHT22;37895;53.240;6.572;2023-04-22T01:43:14;11.50;96.70
51855;DHT22;37895;53.240;6.572;2023-04-22T01:45:39;11.40;96.70
51855;DHT22;37895;53.240;6.572;2023-04-22T01:48:05;11.40;96.80
51855;DHT22;37895;53.240;6.572;2023-04-22T01:50:33;11.30;96.80
51855;DHT22;37895;53.240;6.572;2023-04-22T01:52:59;11.30;96.80
51855;DHT22;37895;53.240;6.572;2023-04-22T01:55:25;11.30;97.00
51855;DHT22;37895;53.240;6.572;2023-04-22T01:57:51;11.30;97.00
51855;DHT22;37895;53.240;6.572;2023-04-22T02:00:17;11.30;96.80
51855;DHT22;37895;53.240;6.572;2023-04-22T02:02:43;11.30;96.60
51855;DHT22;37895;53.240;6.572;2023-04-22T02:05:09;11.30;96.60
51855;DHT22;37895;53.240;6.572;2023-04-22T02:07:35;11.30;96.70
51855;DHT22;37895;53.240;6.572;2023-04-22T02:10:05;11.30;96.70
51855;DHT22;37895;53.240;6.572;2023-04-22T02:12:30;11.30;96.80
51855;DHT22;37895;53.240;6.572;2023-04-22T02:14:57;11.20;96.90
51855;DHT22;37895;53.240;6.572;2023-04-22T02:17:22;11.20;97.00
51855;DHT22;37895;53.240;6.572;2023-04-22T02:19:48;11.10;97.00
51855;DHT22;37895;53.240;6.572;2023-04-22T02:22:14;11.10;97.10
51855;DHT22;37895;53.240;6.572;2023-04-22T02:24:40;11.00;97.20
51855;DHT22;37895;53.240;6.572;2023-04-22T02:27:05;11.00;97.10
51855;DHT22;37895;53.240;6.572;2023-04-22T02:29:33;11.00;97.10
51855;DHT22;37895;53.240;6.572;2023-04-22T02:31:59;11.00;97.20
51855;DHT22;37895;53.240;6.572;2023-04-22T02:34:24;10.90;97.20
51855;DHT22;37895;53.240;6.572;2023-04-22T02:36:50;11.00;97.40
51855;DHT22;37895;53.240;6.572;2023-04-22T02:39:16;11.00;97.40
51855;DHT22;37895;53.240;6.572;2023-04-22T02:41:41;11.00;97.40
51855;DHT22;37895;53.240;6.572;2023-04-22T02:44:07;11.00;97.30
51855;DHT22;37895;53.240;6.572;2023-04-22T02:46:33;11.00;97.30
51855;DHT22;37895;53.240;6.572;2023-04-22T02:48:58;11.10;97.20
51855;DHT22;37895;53.240;6.572;2023-04-22T02:51:24;11.10;97.10
51855;DHT22;37895;53.240;6.572;2023-04-22T02:53:51;11.10;97.00
51855;DHT22;37895;53.240;6.572;2023-04-22T02:56:17;11.00;97.10
51855;DHT22;37895;53.240;6.572;2023-04-22T02:58:42;11.00;97.40
51855;DHT22;37895;53.240;6.572;2023-04-22T03:01:08;11.00;96.90
51855;DHT22;37895;53.240;6.572;2023-04-22T03:03:34;11.10;97.00
51855;DHT22;37895;53.240;6.572;2023-04-22T03:05:59;10.90;97.00
51855;DHT22;37895;53.240;6.572;2023-04-22T03:08:25;10.80;97.00
51855;DHT22;37895;53.240;6.572;2023-04-22T03:10:50;10.80;97.00
51855;DHT22;37895;53.240;6.572;2023-04-22T03:13:16;10.70;97.10
51855;DHT22;37895;53.240;6.572;2023-04-22T03:15:42;10.70;97.10
51855;DHT22;37895;53.240;6.572;2023-04-22T03:18:07;10.60;97.20
51855;DHT22;37895;53.240;6.572;2023-04-22T03:20:34;10.60;97.20
51855;DHT22;37895;53.240;6.572;2023-04-22T03:23:00;10.60;97.60
51855;DHT22;37895;53.240;6.572;2023-04-22T03:25:26;10.50;97.60
51855;DHT22;37895;53.240;6.572;2023-04-22T03:27:51;10.50;97.30
51855;DHT22;37895;53.240;6.572;2023-04-22T03:30:17;10.50;97.40
51855;DHT22;37895;53.240;6.572;2023-04-22T03:32:43;10.50;97.50
51855;DHT22;37895;53.240;6.572;2023-04-22T03:35:08;10.50;97.60
51855;DHT22;37895;53.240;6.572;2023-04-22T03:37:34;10.50;97.40
51855;DHT22;37895;53.240;6.572;2023-04-22T03:40:00;10.50;97.50
51855;DHT22;37895;53.240;6.572;2023-04-22T03:42:25;10.50;97.40
51855;DHT22;37895;53.240;6.572;2023-04-22T03:44:51;10.40;97.40
51855;DHT22;37895;53.240;6.572;2023-04-22T03:47:17;10.40;97.40
51855;DHT22;37895;53.240;6.572;2023-04-22T03:49:43;10.40;97.40
51855;DHT22;37895;53.240;6.572;2023-04-22T03:52:08;10.40;97.60
51855;DHT22;37895;53.240;6.572;2023-04-22T03:54:34;10.30;97.60
51855;DHT22;37895;53.240;6.572;2023-04-22T03:57:00;10.30;97.70
51855;DHT22;37895;53.240;6.572;2023-04-22T03:59:25;10.30;97.70
51855;DHT22;37895;53.240;6.572;2023-04-22T04:01:51;10.30;97.70
51855;DHT22;37895;53.240;6.572;2023-04-22T04:04:18;10.30;97.70
51855;DHT22;37895;53.240;6.572;2023-04-22T04:06:44;10.20;97.80
51855;DHT22;37895;53.240;6.572;2023-04-22T04:09:11;10.20;98.00
51855;DHT22;37895;53.240;6.572;2023-04-22T04:11:37;10.20;97.70
51855;DHT22;37895;53.240;6.572;2023-04-22T04:14:02;10.10;97.70
51855;DHT22;37895;53.240;6.572;2023-04-22T04:16:28;10.20;97.70
51855;DHT22;37895;53.240;6.572;2023-04-22T04:18:54;10.20;97.70
51855;DHT22;37895;53.240;6.572;2023-04-22T04:21:19;10.30;97.60
51855;DHT22;37895;53.240;6.572;2023-04-22T04:23:47;10.30;97.60
51855;DHT22;37895;53.240;6.572;2023-04-22T04:26:12;10.20;97.60
51855;DHT22;37895;53.240;6.572;2023-04-22T04:28:40;10.20;97.50
51855;DHT22;37895;53.240;6.572;2023-04-22T04:31:06;10.10;97.60
51855;DHT22;37895;53.240;6.572;2023-04-22T04:33:32;10.00;97.70
51855;DHT22;37895;53.240;6.572;2023-04-22T04:35:58;10.00;97.70
51855;DHT22;37895;53.240;6.572;2023-04-22T04:38:24;10.10;97.70
51855;DHT22;37895;53.240;6.572;2023-04-22T04:40:50;10.10;97.80
51855;DHT22;37895;53.240;6.572;2023-04-22T04:43:16;10.00;97.60
51855;DHT22;37895;53.240;6.572;2023-04-22T04:45:41;10.00;97.80
51855;DHT22;37895;53.240;6.572;2023-04-22T04:48:14;10.00;97.50
51855;DHT22;37895;53.240;6.572;2023-04-22T04:50:43;10.00;97.60
51855;DHT22;37895;53.240;6.572;2023-04-22T04:53:11;10.00;97.60
51855;DHT22;37895;53.240;6.572;2023-04-22T04:55:37;10.10;97.60
51855;DHT22;37895;53.240;6.572;2023-04-22T04:58:03;10.10;97.70
51855;DHT22;37895;53.240;6.572;2023-04-22T05:00:29;10.10;97.70
51855;DHT22;37895;53.240;6.572;2023-04-22T05:02:54;10.10;97.70
51855;DHT22;37895;53.240;6.572;2023-04-22T05:05:20;10.10;97.70
51855;DHT22;37895;53.240;6.572;2023-04-22T05:07:46;10.00;97.70
51855;DHT22;37895;53.240;6.572;2023-04-22T05:10:12;10.00;97.70
51855;DHT22;37895;53.240;6.572;2023-04-22T05:12:38;10.00;97.60
51855;DHT22;37895;53.240;6.572;2023-04-22T05:15:05;10.10;97.70
51855;DHT22;37895;53.240;6.572;2023-04-22T05:17:31;10.10;97.60
51855;DHT22;37895;53.240;6.572;2023-04-22T05:19:57;10.00;97.60
51855;DHT22;37895;53.240;6.572;2023-04-22T05:22:22;10.10;97.40
51855;DHT22;37895;53.240;6.572;2023-04-22T05:24:48;10.10;97.30
51855;DHT22;37895;53.240;6.572;2023-04-22T05:27:14;10.30;97.30
51855;DHT22;37895;53.240;6.572;2023-04-22T05:29:39;10.20;97.20
51855;DHT22;37895;53.240;6.572;2023-04-22T05:32:06;10.20;97.30
51855;DHT22;37895;53.240;6.572;2023-04-22T05:34:33;10.20;97.20
51855;DHT22;37895;53.240;6.572;2023-04-22T05:37:01;10.20;97.10
51855;DHT22;37895;53.240;6.572;2023-04-22T05:39:26;10.20;97.10
51855;DHT22;37895;53.240;6.572;2023-04-22T05:41:52;10.20;97.00
51855;DHT22;37895;53.240;6.572;2023-04-22T05:44:18;10.20;97.10
51855;DHT22;37895;53.240;6.572;2023-04-22T05:46:44;10.20;97.00
51855;DHT22;37895;53.240;6.572;2023-04-22T05:49:10;10.30;96.90
51855;DHT22;37895;53.240;6.572;2023-04-22T05:51:35;10.30;96.70
51855;DHT22;37895;53.240;6.572;2023-04-22T05:54:01;10.40;96.60
51855;DHT22;37895;53.240;6.572;2023-04-22T05:56:27;10.50;96.50
51855;DHT22;37895;53.240;6.572;2023-04-22T05:58:52;10.60;96.40
51855;DHT22;37895;53.240;6.572;2023-04-22T06:01:18;10.70;96.20
51855;DHT22;37895;53.240;6.572;2023-04-22T06:03:44;10.80;96.10
51855;DHT22;37895;53.240;6.572;2023-04-22T06:06:09;10.80;95.90
51855;DHT22;37895;53.240;6.572;2023-04-22T06:08:35;10.90;95.90
51855;DHT22;37895;53.240;6.572;2023-04-22T06:11:01;10.90;95.70
51855;DHT22;37895;53.240;6.572;2023-04-22T06:13:26;10.90;95.60
51855;DHT22;37895;53.240;6.572;2023-04-22T06:15:52;11.00;95.50
51855;DHT22;37895;53.240;6.572;2023-04-22T06:18:17;11.00;95.40
51855;DHT22;37895;53.240;6.572;2023-04-22T06:20:43;11.00;95.30
51855;DHT22;37895;53.240;6.572;2023-04-22T06:23:09;11.00;95.20
51855;DHT22;37895;53.240;6.572;2023-04-22T06:25:34;11.00;95.20
51855;DHT22;37895;53.240;6.572;2023-04-22T06:28:00;11.10;95.00
51855;DHT22;37895;53.240;6.572;2023-04-22T06:30:26;11.10;94.90
51855;DHT22;37895;53.240;6.572;2023-04-22T06:32:52;11.10;94.90
51855;DHT22;37895;53.240;6.572;2023-04-22T06:35:19;11.10;94.80
51855;DHT22;37895;53.240;6.572;2023-04-22T06:37:46;11.10;94.70
51855;DHT22;37895;53.240;6.572;2023-04-22T06:40:13;11.10;94.50
51855;DHT22;37895;53.240;6.572;2023-04-22T06:42:39;11.10;94.50
51855;DHT22;37895;53.240;6.572;2023-04-22T06:45:06;11.20;94.40
51855;DHT22;37895;53.240;6.572;2023-04-22T06:47:33;11.20;94.40
51855;DHT22;37895;53.240;6.572;2023-04-22T06:50:00;11.20;94.40
51855;DHT22;37895;53.240;6.572;2023-04-22T06:52:26;11.30;94.40
51855;DHT22;37895;53.240;6.572;2023-04-22T06:54:52;11.40;94.20
51855;DHT22;37895;53.240;6.572;2023-04-22T06:57:17;11.40;94.20
51855;DHT22;37895;53.240;6.572;2023-04-22T06:59:43;11.50;94.20
51855;DHT22;37895;53.240;6.572;2023-04-22T07:02:09;11.60;94.10
51855;DHT22;37895;53.240;6.572;2023-04-22T07:04:34;11.70;94.10
51855;DHT22;37895;53.240;6.572;2023-04-22T07:07:00;11.80;94.10
51855;DHT22;37895;53.240;6.572;2023-04-22T07:09:26;11.90;94.00
51855;DHT22;37895;53.240;6.572;2023-04-22T07:11:51;12.00;93.90
51855;DHT22;37895;53.240;6.572;2023-04-22T07:14:17;12.10;93.70
51855;DHT22;37895;53.240;6.572;2023-04-22T07:16:43;12.20;93.80
51855;DHT22;37895;53.240;6.572;2023-04-22T07:19:08;12.20;93.90
51855;DHT22;37895;53.240;6.572;2023-04-22T07:21:34;12.30;94.00
51855;DHT22;37895;53.240;6.572;2023-04-22T07:24:00;12.40;93.70
51855;DHT22;37895;53.240;6.572;2023-04-22T07:26:25;12.50;93.80
51855;DHT22;37895;53.240;6.572;2023-04-22T07:28:51;12.60;93.40
51855;DHT22;37895;53.240;6.572;2023-04-22T07:31:17;12.70;93.10
51855;DHT22;37895;53.240;6.572;2023-04-22T07:33:42;12.80;93.00
51855;DHT22;37895;53.240;6.572;2023-04-22T07:36:08;12.90;92.80
51855;DHT22;37895;53.240;6.572;2023-04-22T07:38:34;13.00;92.70
51855;DHT22;37895;53.240;6.572;2023-04-22T07:41:00;13.10;92.50
51855;DHT22;37895;53.240;6.572;2023-04-22T07:43:26;13.10;92.30
51855;DHT22;37895;53.240;6.572;2023-04-22T07:45:51;13.20;92.40
51855;DHT22;37895;53.240;6.572;2023-04-22T07:48:17;13.30;92.30
51855;DHT22;37895;53.240;6.572;2023-04-22T07:50:42;13.40;92.10
51855;DHT22;37895;53.240;6.572;2023-04-22T07:53:08;13.40;92.10
51855;DHT22;37895;53.240;6.572;2023-04-22T07:55:35;13.50;91.90
51855;DHT22;37895;53.240;6.572;2023-04-22T07:58:01;13.60;91.80
51855;DHT22;37895;53.240;6.572;2023-04-22T08:00:33;13.70;91.70
51855;DHT22;37895;53.240;6.572;2023-04-22T08:03:00;13.80;91.60
51855;DHT22;37895;53.240;6.572;2023-04-22T08:05:26;13.80;91.70
51855;DHT22;37895;53.240;6.572;2023-04-22T08:07:51;13.90;91.40
51855;DHT22;37895;53.240;6.572;2023-04-22T08:10:17;14.00;91.20
51855;DHT22;37895;53.240;6.572;2023-04-22T08:12:43;14.10;91.00
51855;DHT22;37895;53.240;6.572;2023-04-22T08:15:08;14.20;90.80
51855;DHT22;37895;53.240;6.572;2023-04-22T08:17:34;14.20;90.70
51855;DHT22;37895;53.240;6.572;2023-04-22T08:20:00;14.40;90.60
51855;DHT22;37895;53.240;6.572;2023-04-22T08:22:26;14.40;90.40
51855;DHT22;37895;53.240;6.572;2023-04-22T08:24:52;14.50;90.20
51855;DHT22;37895;53.240;6.572;2023-04-22T08:27:19;14.60;90.10
51855;DHT22;37895;53.240;6.572;2023-04-22T08:29:46;14.60;90.00
51855;DHT22;37895;53.240;6.572;2023-04-22T08:32:12;14.70;90.00
51855;DHT22;37895;53.240;6.572;2023-04-22T08:34:38;14.70;89.90
51855;DHT22;37895;53.240;6.572;2023-04-22T08:37:03;14.70;89.60
51855;DHT22;37895;53.240;6.572;2023-04-22T08:39:29;14.70;89.40
51855;DHT22;37895;53.240;6.572;2023-04-22T08:41:55;14.80;89.30
51855;DHT22;37895;53.240;6.572;2023-04-22T08:44:22;14.80;89.20
51855;DHT22;37895;53.240;6.572;2023-04-22T08:46:48;14.90;89.10
51855;DHT22;37895;53.240;6.572;2023-04-22T08:49:16;15.00;88.60
51855;DHT22;37895;53.240;6.572;2023-04-22T08:51:42;15.10;88.40
51855;DHT22;37895;53.240;6.572;2023-04-22T08:54:08;15.20;88.40
51855;DHT22;37895;53.240;6.572;2023-04-22T08:56:35;15.30;88.60
51855;DHT22;37895;53.240;6.572;2023-04-22T08:59:02;15.30;87.90
51855;DHT22;37895;53.240;6.572;2023-04-22T09:01:30;15.40;86.90
51855;DHT22;37895;53.240;6.572;2023-04-22T09:03:58;15.40;87.00
51855;DHT22;37895;53.240;6.572;2023-04-22T09:06:24;15.50;87.00
51855;DHT22;37895;53.240;6.572;2023-04-22T09:08:52;15.50;87.10
51855;DHT22;37895;53.240;6.572;2023-04-22T09:11:18;15.50;86.90
51855;DHT22;37895;53.240;6.572;2023-04-22T09:13:44;15.50;86.70
51855;DHT22;37895;53.240;6.572;2023-04-22T09:16:09;15.50;86.40
51855;DHT22;37895;53.240;6.572;2023-04-22T09:18:41;15.40;86.40
51855;DHT22;37895;53.240;6.572;2023-04-22T09:21:07;15.40;86.80
51855;DHT22;37895;53.240;6.572;2023-04-22T09:23:42;15.40;87.20
51855;DHT22;37895;53.240;6.572;2023-04-22T09:26:08;15.40;86.70
51855;DHT22;37895;53.240;6.572;2023-04-22T09:28:35;15.50;86.60
51855;DHT22;37895;53.240;6.572;2023-04-22T09:31:01;15.50;86.70
51855;DHT22;37895;53.240;6.572;2023-04-22T09:33:27;15.50;86.90
51855;DHT22;37895;53.240;6.572;2023-04-22T09:35:55;15.60;87.00
51855;DHT22;37895;53.240;6.572;2023-04-22T09:38:20;15.60;86.60
51855;DHT22;37895;53.240;6.572;2023-04-22T09:40:46;15.70;86.20
51855;DHT22;37895;53.240;6.572;2023-04-22T09:43:17;15.80;86.10
51855;DHT22;37895;53.240;6.572;2023-04-22T09:45:43;15.90;85.80
51855;DHT22;37895;53.240;6.572;2023-04-22T09:48:13;15.90;85.80
51855;DHT22;37895;53.240;6.572;2023-04-22T09:50:43;16.10;85.70
51855;DHT22;37895;53.240;6.572;2023-04-22T09:53:15;16.20;85.30
51855;DHT22;37895;53.240;6.572;2023-04-22T09:55:44;16.40;85.20
51855;DHT22;37895;53.240;6.572;2023-04-22T09:58:15;16.70;84.80
51855;DHT22;37895;53.240;6.572;2023-04-22T10:00:47;16.90;83.60
51855;DHT22;37895;53.240;6.572;2023-04-22T10:03:14;17.00;82.20
51855;DHT22;37895;53.240;6.572;2023-04-22T10:05:40;17.30;81.10
51855;DHT22;37895;53.240;6.572;2023-04-22T10:08:09;17.40;81.60
51855;DHT22;37895;53.240;6.572;2023-04-22T10:10:36;17.50;80.80
51855;DHT22;37895;53.240;6.572;2023-04-22T10:13:03;17.60;80.40
51855;DHT22;37895;53.240;6.572;2023-04-22T10:18:08;17.70;79.60
51855;DHT22;37895;53.240;6.572;2023-04-22T10:20:38;17.70;78.90
51855;DHT22;37895;53.240;6.572;2023-04-22T10:23:05;17.80;78.10
51855;DHT22;37895;53.240;6.572;2023-04-22T10:25:38;17.70;78.60
51855;DHT22;37895;53.240;6.572;2023-04-22T10:28:09;17.80;78.40
51855;DHT22;37895;53.240;6.572;2023-04-22T10:30:37;17.80;77.80
51855;DHT22;37895;53.240;6.572;2023-04-22T10:38:38;18.00;75.60
51855;DHT22;37895;53.240;6.572;2023-04-22T10:41:03;18.00;75.60
51855;DHT22;37895;53.240;6.572;2023-04-22T10:43:48;18.10;75.00
51855;DHT22;37895;53.240;6.572;2023-04-22T10:49:17;18.20;73.60
51855;DHT22;37895;53.240;6.572;2023-04-22T10:51:47;18.20;73.40
51855;DHT22;37895;53.240;6.572;2023-04-22T10:57:13;18.50;72.90
51855;DHT22;37895;53.240;6.572;2023-04-22T10:59:54;18.60;73.20
51855;DHT22;37895;53.240;6.572;2023-04-22T11:02:21;18.80;72.10
51855;DHT22;37895;53.240;6.572;2023-04-22T11:04:47;18.90;72.00
51855;DHT22;37895;53.240;6.572;2023-04-22T11:15:08;19.40;69.30
51855;DHT22;37895;53.240;6.572;2023-04-22T11:17:35;19.50;69.40
51855;DHT22;37895;53.240;6.572;2023-04-22T11:20:01;19.60;68.70
51855;DHT22;37895;53.240;6.572;2023-04-22T11:22:28;19.70;69.10
51855;DHT22;37895;53.240;6.572;2023-04-22T11:24:58;19.70;69.30
51855;DHT22;37895;53.240;6.572;2023-04-22T11:27:25;19.80;68.80
51855;DHT22;37895;53.240;6.572;2023-04-22T11:30:07;19.90;68.90
51855;DHT22;37895;53.240;6.572;2023-04-22T11:39:17;20.30;66.00
51855;DHT22;37895;53.240;6.572;2023-04-22T11:41:43;20.40;65.30
51855;DHT22;37895;53.240;6.572;2023-04-22T11:44:08;20.40;65.40
51855;DHT22;37895;53.240;6.572;2023-04-22T11:46:34;20.50;65.70
51855;DHT22;37895;53.240;6.572;2023-04-22T11:49:14;20.50;65.40
51855;DHT22;37895;53.240;6.572;2023-04-22T11:51:55;20.60;64.90
51855;DHT22;37895;53.240;6.572;2023-04-22T11:54:30;20.80;64.00
51855;DHT22;37895;53.240;6.572;2023-04-22T11:56:56;21.00;64.40
51855;DHT22;37895;53.240;6.572;2023-04-22T11:59:25;21.20;63.50
51855;DHT22;37895;53.240;6.572;2023-04-22T12:01:51;21.20;63.00
51855;DHT22;37895;53.240;6.572;2023-04-22T12:04:19;21.20;63.70
51855;DHT22;37895;53.240;6.572;2023-04-22T12:06:45;21.20;63.20
51855;DHT22;37895;53.240;6.572;2023-04-22T12:09:11;21.30;62.70
51855;DHT22;37895;53.240;6.572;2023-04-22T12:11:38;21.30;62.20
51855;DHT22;37895;53.240;6.572;2023-04-22T12:14:07;21.30;61.90
51855;DHT22;37895;53.240;6.572;2023-04-22T12:16:39;21.40;61.20
51855;DHT22;37895;53.240;6.572;2023-04-22T12:19:06;21.30;62.10
51855;DHT22;37895;53.240;6.572;2023-04-22T12:21:31;21.40;61.80
51855;DHT22;37895;53.240;6.572;2023-04-22T12:24:02;21.40;62.20
51855;DHT22;37895;53.240;6.572;2023-04-22T12:26:31;21.50;61.00
51855;DHT22;37895;53.240;6.572;2023-04-22T12:28:57;21.50;60.10
51855;DHT22;37895;53.240;6.572;2023-04-22T12:31:23;21.40;60.70
51855;DHT22;37895;53.240;6.572;2023-04-22T12:33:49;21.20;61.50
51855;DHT22;37895;53.240;6.572;2023-04-22T12:36:15;21.20;60.60
51855;DHT22;37895;53.240;6.572;2023-04-22T12:38:41;21.20;61.10
51855;DHT22;37895;53.240;6.572;2023-04-22T12:41:07;21.10;61.70
51855;DHT22;37895;53.240;6.572;2023-04-22T12:43:33;21.00;62.40
51855;DHT22;37895;53.240;6.572;2023-04-22T12:46:04;20.90;63.10
51855;DHT22;37895;53.240;6.572;2023-04-22T12:48:30;21.00;63.40
51855;DHT22;37895;53.240;6.572;2023-04-22T12:50:56;21.30;62.50
51855;DHT22;37895;53.240;6.572;2023-04-22T12:53:23;21.50;61.80
51855;DHT22;37895;53.240;6.572;2023-04-22T12:55:48;21.70;62.10
51855;DHT22;37895;53.240;6.572;2023-04-22T12:58:15;21.60;59.30
51855;DHT22;37895;53.240;6.572;2023-04-22T13:00:40;21.80;60.30
51855;DHT22;37895;53.240;6.572;2023-04-22T13:03:06;21.70;60.60
51855;DHT22;37895;53.240;6.572;2023-04-22T13:05:32;21.70;60.50
51855;DHT22;37895;53.240;6.572;2023-04-22T13:07:57;21.70;60.90
51855;DHT22;37895;53.240;6.572;2023-04-22T13:10:23;21.70;61.00
51855;DHT22;37895;53.240;6.572;2023-04-22T13:12:52;21.60;61.20
51855;DHT22;37895;53.240;6.572;2023-04-22T13:15:18;21.60;61.20
51855;DHT22;37895;53.240;6.572;2023-04-22T13:17:44;21.50;61.40
51855;DHT22;37895;53.240;6.572;2023-04-22T13:20:10;21.40;62.10
51855;DHT22;37895;53.240;6.572;2023-04-22T13:22:38;21.40;62.70
51855;DHT22;37895;53.240;6.572;2023-04-22T13:25:08;21.50;62.70
51855;DHT22;37895;53.240;6.572;2023-04-22T13:27:34;21.70;63.20
51855;DHT22;37895;53.240;6.572;2023-04-22T13:30:00;21.80;61.80
51855;DHT22;37895;53.240;6.572;2023-04-22T13:32:26;21.80;61.60
51855;DHT22;37895;53.240;6.572;2023-04-22T13:34:51;21.80;61.60
51855;DHT22;37895;53.240;6.572;2023-04-22T13:37:17;21.70;62.00
51855;DHT22;37895;53.240;6.572;2023-04-22T13:39:44;21.70;62.40
51855;DHT22;37895;53.240;6.572;2023-04-22T13:42:10;21.70;62.50
51855;DHT22;37895;53.240;6.572;2023-04-22T13:44:36;21.70;62.10
51855;DHT22;37895;53.240;6.572;2023-04-22T13:47:01;21.60;62.90
51855;DHT22;37895;53.240;6.572;2023-04-22T13:49:27;21.60;62.40
51855;DHT22;37895;53.240;6.572;2023-04-22T13:51:53;21.60;62.10
51855;DHT22;37895;53.240;6.572;2023-04-22T13:54:18;21.50;61.60
51855;DHT22;37895;53.240;6.572;2023-04-22T13:56:44;21.40;61.90
51855;DHT22;37895;53.240;6.572;2023-04-22T13:59:10;21.20;62.00
51855;DHT22;37895;53.240;6.572;2023-04-22T14:01:36;21.10;61.90
51855;DHT22;37895;53.240;6.572;2023-04-22T14:04:02;20.90;62.50
51855;DHT22;37895;53.240;6.572;2023-04-22T14:06:28;20.90;62.40
51855;DHT22;37895;53.240;6.572;2023-04-22T14:08:54;20.80;62.90
51855;DHT22;37895;53.240;6.572;2023-04-22T14:11:19;20.70;63.40
51855;DHT22;37895;53.240;6.572;2023-04-22T14:13:45;20.60;64.00
51855;DHT22;37895;53.240;6.572;2023-04-22T14:16:12;20.50;64.00
51855;DHT22;37895;53.240;6.572;2023-04-22T14:18:39;20.30;64.60
51855;DHT22;37895;53.240;6.572;2023-04-22T14:21:07;20.30;64.80
51855;DHT22;37895;53.240;6.572;2023-04-22T14:23:36;20.20;65.40
51855;DHT22;37895;53.240;6.572;2023-04-22T14:26:02;20.10;65.20
51855;DHT22;37895;53.240;6.572;2023-04-22T14:28:28;20.00;65.60
51855;DHT22;37895;53.240;6.572;2023-04-22T14:30:55;19.90;66.50
51855;DHT22;37895;53.240;6.572;2023-04-22T14:33:22;19.80;66.80
51855;DHT22;37895;53.240;6.572;2023-04-22T14:35:50;19.80;69.20
51855;DHT22;37895;53.240;6.572;2023-04-22T14:38:16;19.60;72.40
51855;DHT22;37895;53.240;6.572;2023-04-22T14:40:41;19.40;74.60
51855;DHT22;37895;53.240;6.572;2023-04-22T14:43:07;19.20;76.50
51855;DHT22;37895;53.240;6.572;2023-04-22T14:45:32;18.90;81.70
51855;DHT22;37895;53.240;6.572;2023-04-22T14:47:59;18.80;82.20
51855;DHT22;37895;53.240;6.572;2023-04-22T14:50:25;18.60;81.90
51855;DHT22;37895;53.240;6.572;2023-04-22T14:52:51;18.50;83.30
51855;DHT22;37895;53.240;6.572;2023-04-22T14:55:17;18.30;84.50
51855;DHT22;37895;53.240;6.572;2023-04-22T14:57:43;18.20;85.40
51855;DHT22;37895;53.240;6.572;2023-04-22T15:00:09;18.00;86.90
51855;DHT22;37895;53.240;6.572;2023-04-22T15:02:36;17.80;87.40
51855;DHT22;37895;53.240;6.572;2023-04-22T15:05:02;17.70;89.10
51855;DHT22;37895;53.240;6.572;2023-04-22T15:07:28;17.60;89.10
51855;DHT22;37895;53.240;6.572;2023-04-22T15:09:54;17.50;90.00
51855;DHT22;37895;53.240;6.572;2023-04-22T15:12:23;17.40;89.90
51855;DHT22;37895;53.240;6.572;2023-04-22T15:14:48;17.30;90.20
51855;DHT22;37895;53.240;6.572;2023-04-22T15:17:14;17.30;90.10
51855;DHT22;37895;53.240;6.572;2023-04-22T15:19:40;17.20;90.90
51855;DHT22;37895;53.240;6.572;2023-04-22T15:22:05;17.10;90.90
51855;DHT22;37895;53.240;6.572;2023-04-22T15:24:31;17.10;91.10
51855;DHT22;37895;53.240;6.572;2023-04-22T15:26:57;17.00;91.20
51855;DHT22;37895;53.240;6.572;2023-04-22T15:29:23;17.00;91.50
51855;DHT22;37895;53.240;6.572;2023-04-22T15:31:48;16.90;91.70
51855;DHT22;37895;53.240;6.572;2023-04-22T15:34:14;16.80;91.90
51855;DHT22;37895;53.240;6.572;2023-04-22T15:36:40;16.70;92.30
51855;DHT22;37895;53.240;6.572;2023-04-22T15:39:06;16.70;92.20
51855;DHT22;37895;53.240;6.572;2023-04-22T15:41:35;16.60;92.40
51855;DHT22;37895;53.240;6.572;2023-04-22T15:44:01;16.60;93.10
51855;DHT22;37895;53.240;6.572;2023-04-22T15:46:30;16.60;93.20
51855;DHT22;37895;53.240;6.572;2023-04-22T15:48:59;16.60;93.40
51855;DHT22;37895;53.240;6.572;2023-04-22T15:54:47;16.50;93.90
51855;DHT22;37895;53.240;6.572;2023-04-22T15:57:14;16.50;94.10